createdAt,value
2023-02-16T00:01:46.451Z,76.39
2023-02-16T00:04:19.857Z,76.22
2023-02-16T00:06:48.651Z,76.13
2023-02-16T00:09:17.087Z,76.13
2023-02-16T00:12:03.420Z,76.16
2023-02-16T00:14:31.753Z,76.38
2023-02-16T00:17:00.641Z,76.07
2023-02-16T00:19:31.880Z,76.02
2023-02-16T00:22:01.408Z,75.72
2023-02-16T00:24:30.848Z,76.16
2023-02-16T00:27:00.806Z,76.06
2023-02-16T00:29:30.678Z,75.82
2023-02-16T00:32:00.521Z,76.30
2023-02-16T00:34:35.326Z,76.32
2023-02-16T00:37:05.443Z,75.87
2023-02-16T00:39:34.239Z,76.22
2023-02-16T00:42:04.131Z,76.02
2023-02-16T00:44:37.399Z,76.18
2023-02-16T00:47:17.521Z,76.49
2023-02-16T00:49:49.692Z,76.20
2023-02-16T00:52:39.215Z,76.21
2023-02-16T00:55:09.711Z,76.25
2023-02-16T00:57:41.338Z,76.16
2023-02-16T01:00:16.394Z,76.33
2023-02-16T01:02:44.906Z,76.24
2023-02-16T01:05:14.317Z,76.50
2023-02-16T01:08:00.266Z,76.03
2023-02-16T01:10:47.619Z,76.01
2023-02-16T01:13:17.018Z,76.40
2023-02-16T01:15:45.580Z,76.25
2023-02-16T01:18:15.409Z,76.29
2023-02-16T01:20:45.588Z,76.02
2023-02-16T01:23:13.800Z,76.51
2023-02-16T01:25:42.854Z,76.32
2023-02-16T01:28:19.381Z,76.47
2023-02-16T01:30:47.453Z,76.51
2023-02-16T01:33:15.471Z,76.50
2023-02-16T01:35:45.487Z,76.48
2023-02-16T01:38:18.868Z,76.66
2023-02-16T01:40:54.775Z,76.35
2023-02-16T01:43:27.467Z,76.28
2023-02-16T01:46:02.823Z,76.47
2023-02-16T01:48:32.620Z,76.46
2023-02-16T01:51:08.187Z,76.38
2023-02-16T01:53:41.058Z,76.38
2023-02-16T01:56:20.023Z,76.68
2023-02-16T01:58:51.423Z,76.67
2023-02-16T02:01:38.572Z,76.28
2023-02-16T02:04:30.968Z,76.45
2023-02-16T02:07:00.388Z,76.66
2023-02-16T02:09:36.535Z,76.41
2023-02-16T02:12:12.391Z,76.36
2023-02-16T02:14:41.562Z,76.34
2023-02-16T02:17:13.641Z,76.55
2023-02-16T02:19:49.248Z,76.46
2023-02-16T02:23:22.119Z,76.69
2023-02-16T02:26:16.888Z,76.55
2023-02-16T02:28:51.726Z,76.37
2023-02-16T02:31:31.510Z,76.71
2023-02-16T02:34:10.025Z,76.29
2023-02-16T02:36:42.806Z,76.28
2023-02-16T02:39:27.050Z,76.42
2023-02-16T02:42:06.663Z,76.65
2023-02-16T02:44:41.214Z,76.67
2023-02-16T02:47:09.197Z,76.70
2023-02-16T02:49:37.172Z,76.75
2023-02-16T02:52:05.406Z,76.70
2023-02-16T02:54:53.396Z,76.71
2023-02-16T02:57:43.910Z,76.89
2023-02-16T03:00:34.082Z,76.72
2023-02-16T03:03:08.001Z,76.59
2023-02-16T03:05:37.607Z,76.80
2023-02-16T03:08:15.093Z,76.88
2023-02-16T03:11:03.286Z,77.12
2023-02-16T03:13:38.665Z,76.61
2023-02-16T03:16:13.241Z,76.73
2023-02-16T03:19:01.310Z,76.92
2023-02-16T03:21:47.819Z,76.79
2023-02-16T03:24:40.423Z,76.56
2023-02-16T03:27:27.799Z,76.94
2023-02-16T03:29:57.979Z,76.79
2023-02-16T03:32:27.264Z,76.84
2023-02-16T03:34:55.188Z,76.84
2023-02-16T03:37:23.117Z,76.81
2023-02-16T03:40:08.609Z,76.79
2023-02-16T03:42:36.462Z,76.68
2023-02-16T03:45:04.653Z,76.75
2023-02-16T03:47:33.776Z,76.80
2023-02-16T03:50:01.564Z,76.92
2023-02-16T03:52:29.380Z,77.12
2023-02-16T03:54:57.198Z,76.82
2023-02-16T03:57:25.074Z,77.02
2023-02-16T03:59:54.276Z,76.75
2023-02-16T04:02:22.803Z,76.79
2023-02-16T04:04:53.452Z,77.04
2023-02-16T04:07:21.286Z,76.89
2023-02-16T04:09:49.121Z,76.76
2023-02-16T04:12:34.713Z,76.85
2023-02-16T04:15:03.419Z,76.73
2023-02-16T04:17:31.195Z,76.83
2023-02-16T04:20:00.480Z,76.83
2023-02-16T04:22:28.497Z,76.98
2023-02-16T04:24:56.314Z,77.19
2023-02-16T04:27:24.176Z,77.03
2023-02-16T04:29:52.085Z,76.86
2023-02-16T04:32:20.028Z,76.81
2023-02-16T04:34:47.913Z,77.01
2023-02-16T04:37:17.499Z,76.86
2023-02-16T04:39:45.300Z,76.87
2023-02-16T04:42:13.332Z,77.05
2023-02-16T04:44:41.100Z,77.20
2023-02-16T04:47:08.959Z,77.08
2023-02-16T04:49:36.793Z,76.85
2023-02-16T04:52:05.625Z,76.95
2023-02-16T04:54:35.176Z,76.97
2023-02-16T04:57:03.001Z,77.20
2023-02-16T04:59:30.909Z,77.12
2023-02-16T05:01:58.808Z,77.07
2023-02-16T05:04:27.242Z,77.03
2023-02-16T05:06:55.193Z,77.06
2023-02-16T05:09:23.040Z,76.89
2023-02-16T05:12:08.912Z,77.21
2023-02-16T05:14:43.234Z,77.23
2023-02-16T05:17:13.005Z,77.09
2023-02-16T05:19:41.384Z,77.21
2023-02-16T05:22:09.693Z,77.40
2023-02-16T05:24:38.486Z,77.06
2023-02-16T05:27:09.620Z,77.16
2023-02-16T05:29:37.438Z,76.95
2023-02-16T05:32:05.789Z,77.21
2023-02-16T05:34:33.692Z,77.10
2023-02-16T05:37:01.548Z,77.39
2023-02-16T05:39:29.686Z,77.23
2023-02-16T05:41:57.606Z,76.90
2023-02-16T05:44:26.907Z,77.13
2023-02-16T05:46:54.706Z,77.01
2023-02-16T05:49:22.625Z,77.44
2023-02-16T05:51:50.342Z,77.01
2023-02-16T05:54:18.241Z,77.19
2023-02-16T05:56:47.002Z,77.54
2023-02-16T05:59:16.018Z,76.93
2023-02-16T06:01:49.550Z,77.19
2023-02-16T06:04:19.049Z,77.17
2023-02-16T06:06:46.967Z,77.14
2023-02-16T06:09:14.814Z,77.30
2023-02-16T06:11:42.765Z,77.47
2023-02-16T06:14:13.056Z,77.45
2023-02-16T06:16:42.696Z,77.33
2023-02-16T06:19:13.545Z,77.26
2023-02-16T06:21:41.972Z,77.24
2023-02-16T06:24:11.706Z,77.31
2023-02-16T06:26:39.641Z,77.47
2023-02-16T06:29:08.306Z,77.27
2023-02-16T06:31:37.015Z,77.27
2023-02-16T06:34:06.534Z,77.69
2023-02-16T06:36:36.067Z,77.45
2023-02-16T06:39:04.847Z,77.18
2023-02-16T06:41:35.600Z,77.29
2023-02-16T06:44:05.276Z,77.47
2023-02-16T06:46:33.402Z,77.42
2023-02-16T06:49:01.358Z,77.39
2023-02-16T06:51:30.169Z,77.27
2023-02-16T06:53:59.806Z,77.63
2023-02-16T06:56:28.158Z,77.53
2023-02-16T06:58:56.050Z,77.35
2023-02-16T07:01:25.997Z,77.57
2023-02-16T07:03:55.449Z,77.31
2023-02-16T07:06:24.434Z,77.61
2023-02-16T07:08:53.205Z,77.21
2023-02-16T07:11:23.480Z,77.76
2023-02-16T07:13:51.852Z,77.34
2023-02-16T07:16:19.844Z,77.37
2023-02-16T07:18:47.897Z,77.42
2023-02-16T07:21:16.535Z,77.38
2023-02-16T07:23:45.418Z,77.53
2023-02-16T07:26:13.404Z,77.66
2023-02-16T07:28:42.649Z,77.66
2023-02-16T07:31:12.439Z,77.42
2023-02-16T07:33:40.677Z,77.54
2023-02-16T07:36:10.912Z,77.58
2023-02-16T07:38:42.021Z,77.75
2023-02-16T07:41:10.774Z,77.72
2023-02-16T07:43:39.742Z,77.60
2023-02-16T07:46:09.004Z,77.81
2023-02-16T07:48:36.812Z,77.56
2023-02-16T07:51:05.729Z,77.49
2023-02-16T07:53:33.944Z,77.72
2023-02-16T07:56:01.714Z,77.75
2023-02-16T07:58:30.130Z,77.88
2023-02-16T08:01:08.724Z,77.97
2023-02-16T08:03:38.191Z,77.87
2023-02-16T08:06:06.780Z,77.99
2023-02-16T08:08:35.083Z,77.81
2023-02-16T08:11:09.538Z,77.83
2023-02-16T08:13:37.333Z,77.85
2023-02-16T08:16:09.375Z,77.81
2023-02-16T08:18:38.588Z,77.88
2023-02-16T08:21:14.042Z,77.88
2023-02-16T08:23:43.341Z,77.96
2023-02-16T08:26:11.780Z,77.75
2023-02-16T08:28:39.625Z,77.85
2023-02-16T08:31:07.579Z,77.98
2023-02-16T08:33:36.729Z,78.00
2023-02-16T08:36:09.530Z,77.96
2023-02-16T08:38:37.330Z,78.12
2023-02-16T08:41:05.340Z,77.69
2023-02-16T08:43:33.107Z,77.83
2023-02-16T08:46:00.936Z,77.84
2023-02-16T08:48:35.370Z,78.03
2023-02-16T08:51:06.674Z,77.97
2023-02-16T08:53:35.076Z,77.93
2023-02-16T08:56:05.104Z,78.10
2023-02-16T08:58:33.453Z,78.01
2023-02-16T09:01:05.952Z,78.23
2023-02-16T09:03:34.313Z,78.05
2023-02-16T09:06:04.005Z,78.13
2023-02-16T09:08:33.819Z,78.12
2023-02-16T09:11:02.968Z,78.30
2023-02-16T09:13:31.041Z,78.07
2023-02-16T09:16:03.740Z,77.93
2023-02-16T09:18:33.097Z,78.33
2023-02-16T09:21:06.914Z,78.54
2023-02-16T09:23:36.332Z,78.24
2023-02-16T09:26:07.445Z,77.95
2023-02-16T09:28:35.741Z,78.28
2023-02-16T09:31:10.313Z,78.24
2023-02-16T09:33:38.222Z,78.00
2023-02-16T09:36:07.033Z,78.62
2023-02-16T09:38:37.300Z,78.14
2023-02-16T09:41:11.620Z,78.12
2023-02-16T09:43:48.775Z,78.18
2023-02-16T09:46:22.684Z,78.66
2023-02-16T09:48:51.330Z,78.35
2023-02-16T09:51:33.599Z,78.01
2023-02-16T09:54:16.948Z,78.65
2023-02-16T09:56:50.542Z,78.72
2023-02-16T09:59:30.216Z,78.04
2023-02-16T10:02:03.389Z,78.64
2023-02-16T10:04:39.041Z,78.57
2023-02-16T10:07:21.373Z,78.25
2023-02-16T10:09:55.337Z,78.40
2023-02-16T10:12:26.680Z,78.23
2023-02-16T10:14:58.126Z,77.97
2023-02-16T10:17:33.177Z,78.61
2023-02-16T10:20:04.996Z,78.27
2023-02-16T10:22:36.419Z,78.59
2023-02-16T10:25:13.378Z,78.84
2023-02-16T10:27:44.149Z,78.33
2023-02-16T10:30:16.657Z,78.14
2023-02-16T10:32:56.927Z,78.27
2023-02-16T10:35:33.133Z,78.75
2023-02-16T10:38:06.020Z,78.73
2023-02-16T10:40:51.999Z,78.78
2023-02-16T10:43:24.930Z,78.76
2023-02-16T10:45:54.801Z,78.87
2023-02-16T10:48:24.308Z,78.91
2023-02-16T10:50:59.446Z,78.69
2023-02-16T10:53:38.128Z,78.46
2023-02-16T10:56:27.206Z,78.70
2023-02-16T10:58:54.935Z,78.29
2023-02-16T11:01:36.335Z,78.52
2023-02-16T11:04:04.847Z,78.16
2023-02-16T11:06:36.412Z,78.79
2023-02-16T11:09:06.757Z,78.82
2023-02-16T11:11:39.872Z,78.92
2023-02-16T11:14:10.177Z,78.50
2023-02-16T11:16:38.159Z,78.69
2023-02-16T11:19:10.095Z,78.42
2023-02-16T11:21:47.385Z,79.01
2023-02-16T11:24:26.948Z,78.79
2023-02-16T11:27:04.678Z,78.68
2023-02-16T11:29:32.541Z,78.39
2023-02-16T11:32:06.310Z,78.83
2023-02-16T11:34:37.813Z,79.05
2023-02-16T11:37:13.662Z,78.41
2023-02-16T11:39:48.663Z,78.29
2023-02-16T11:42:29.957Z,78.81
2023-02-16T11:45:00.173Z,78.26
2023-02-16T11:47:31.489Z,78.25
2023-02-16T11:50:19.983Z,78.25
2023-02-16T11:52:49.793Z,78.67
2023-02-16T11:55:24.171Z,78.46
2023-02-16T11:57:53.983Z,78.46
2023-02-16T12:00:24.217Z,78.70
2023-02-16T12:03:31.083Z,78.52
2023-02-16T12:06:12.602Z,78.45
2023-02-16T12:08:53.742Z,78.75
2023-02-16T12:11:31.222Z,78.53
2023-02-16T12:14:12.977Z,78.27
2023-02-16T12:16:47.982Z,78.25
2023-02-16T12:19:39.522Z,78.17
2023-02-16T12:22:21.555Z,78.80
2023-02-16T12:25:00.746Z,78.85
2023-02-16T12:27:34.527Z,78.59
2023-02-16T12:30:14.530Z,78.26
2023-02-16T12:32:53.767Z,78.56
2023-02-16T12:35:45.281Z,78.54
2023-02-16T12:38:29.035Z,78.48
2023-02-16T12:41:06.397Z,78.88
2023-02-16T12:43:39.855Z,78.68
2023-02-16T12:46:15.606Z,78.49
2023-02-16T12:48:49.731Z,78.46
2023-02-16T12:51:21.879Z,78.46
2023-02-16T12:53:54.744Z,78.31
2023-02-16T12:56:27.997Z,78.73
2023-02-16T12:59:07.411Z,78.27
2023-02-16T13:01:37.953Z,78.59
2023-02-16T13:04:16.099Z,78.92
2023-02-16T13:06:49.122Z,78.46
2023-02-16T13:09:27.866Z,78.75
2023-02-16T13:12:02.100Z,79.01
2023-02-16T13:14:34.227Z,78.33
2023-02-16T13:17:10.027Z,78.29
2023-02-16T13:19:37.856Z,78.75
2023-02-16T13:22:29.539Z,78.24
2023-02-16T13:25:21.073Z,79.00
2023-02-16T13:27:57.160Z,78.93
2023-02-16T13:30:48.494Z,78.20
2023-02-16T13:33:42.964Z,78.24
2023-02-16T13:36:22.975Z,78.56
2023-02-16T13:39:12.783Z,78.40
2023-02-16T13:42:06.565Z,78.91
2023-02-16T13:44:40.032Z,78.72
2023-02-16T13:47:12.736Z,78.21
2023-02-16T13:49:43.647Z,78.61
2023-02-16T13:52:31.073Z,78.55
2023-02-16T13:54:59.997Z,78.12
2023-02-16T13:58:00.237Z,78.08
2023-02-16T14:00:32.899Z,78.85
2023-02-16T14:03:03.544Z,78.66
2023-02-16T14:05:42.563Z,78.63
2023-02-16T14:08:13.748Z,78.16
2023-02-16T14:11:04.059Z,78.65
2023-02-16T14:13:33.909Z,78.85
2023-02-16T14:16:08.734Z,78.31
2023-02-16T14:18:42.739Z,78.37
2023-02-16T14:21:27.651Z,78.91
2023-02-16T14:23:57.073Z,78.51
2023-02-16T14:26:25.907Z,78.91
2023-02-16T14:29:03.849Z,78.23
2023-02-16T14:31:40.874Z,78.26
2023-02-16T14:34:17.890Z,78.90
2023-02-16T14:37:28.654Z,78.87
2023-02-16T14:40:08.229Z,78.46
2023-02-16T14:42:37.531Z,78.96
2023-02-16T14:45:19.684Z,78.73
2023-02-16T14:47:58.847Z,78.72
2023-02-16T14:50:54.226Z,78.08
2023-02-16T14:53:52.374Z,78.62
2023-02-16T14:56:32.511Z,78.51
2023-02-16T14:59:06.692Z,78.15
2023-02-16T15:01:41.305Z,78.24
2023-02-16T15:04:10.899Z,78.73
2023-02-16T15:06:42.694Z,78.31
2023-02-16T15:09:17.940Z,78.33
2023-02-16T15:12:11.468Z,78.80
2023-02-16T15:14:45.108Z,78.58
2023-02-16T15:17:24.232Z,78.01
2023-02-16T15:19:53.953Z,78.41
2023-02-16T15:22:24.262Z,78.50
2023-02-16T15:25:02.629Z,78.14
2023-02-16T15:27:33.112Z,78.47
2023-02-16T15:30:07.524Z,78.57
2023-02-16T15:32:35.892Z,78.44
2023-02-16T15:35:11.971Z,78.07
2023-02-16T15:37:40.577Z,78.61
2023-02-16T15:40:25.776Z,78.23
2023-02-16T15:42:56.878Z,78.53
2023-02-16T15:45:35.359Z,78.26
2023-02-16T15:48:18.359Z,78.52
2023-02-16T15:50:46.740Z,78.79
2023-02-16T15:53:15.073Z,78.23
2023-02-16T15:55:47.887Z,78.60
2023-02-16T15:58:16.954Z,78.07
2023-02-16T16:00:45.981Z,78.23
2023-02-16T16:03:17.740Z,78.33
2023-02-16T16:05:59.613Z,78.59
2023-02-16T16:08:29.133Z,78.76
2023-02-16T16:10:59.366Z,78.43
2023-02-16T16:13:30.051Z,78.26
2023-02-16T16:16:02.049Z,77.99
2023-02-16T16:18:41.102Z,78.58
2023-02-16T16:21:22.149Z,78.22
2023-02-16T16:24:04.865Z,78.92
2023-02-16T16:26:36.285Z,78.43
2023-02-16T16:29:04.870Z,78.71
2023-02-16T16:31:41.951Z,78.10
2023-02-16T16:34:12.797Z,78.58
2023-02-16T16:36:47.963Z,78.85
2023-02-16T16:39:23.625Z,78.42
2023-02-16T16:42:10.814Z,78.20
2023-02-16T16:44:40.550Z,78.54
2023-02-16T16:47:25.883Z,78.72
2023-02-16T16:50:00.901Z,78.58
2023-02-16T16:52:37.793Z,78.10
2023-02-16T16:55:27.799Z,78.10
2023-02-16T16:57:58.843Z,78.54
2023-02-16T17:00:29.546Z,78.53
2023-02-16T17:02:58.355Z,78.23
2023-02-16T17:05:26.199Z,78.45
2023-02-16T17:07:54.073Z,78.71
2023-02-16T17:10:23.039Z,78.42
2023-02-16T17:12:54.028Z,78.23
2023-02-16T17:15:39.205Z,78.54
2023-02-16T17:18:07.928Z,78.15
2023-02-16T17:20:35.639Z,79.04
2023-02-16T17:23:05.358Z,78.77
2023-02-16T17:25:35.194Z,78.23
2023-02-16T17:28:04.151Z,78.52
2023-02-16T17:30:32.659Z,78.72
2023-02-16T17:33:02.250Z,78.71
2023-02-16T17:35:31.754Z,78.51
2023-02-16T17:37:59.975Z,78.69
2023-02-16T17:40:27.815Z,78.85
2023-02-16T17:42:55.910Z,78.57
2023-02-16T17:45:23.772Z,78.24
2023-02-16T17:47:53.465Z,78.26
2023-02-16T17:50:22.807Z,78.09
2023-02-16T17:52:57.055Z,78.71
2023-02-16T17:55:25.213Z,78.29
2023-02-16T17:57:52.976Z,78.69
2023-02-16T18:00:23.392Z,78.99
2023-02-16T18:02:51.194Z,78.98
2023-02-16T18:05:19.062Z,78.64
2023-02-16T18:07:48.718Z,78.90
2023-02-16T18:10:33.419Z,78.35
2023-02-16T18:13:01.587Z,78.26
2023-02-16T18:15:30.182Z,78.57
2023-02-16T18:17:58.229Z,78.97
2023-02-16T18:20:26.596Z,78.46
2023-02-16T18:22:55.795Z,78.58
2023-02-16T18:25:23.758Z,78.46
2023-02-16T18:27:51.531Z,78.79
2023-02-16T18:30:21.108Z,78.34
2023-02-16T18:32:48.987Z,78.45
2023-02-16T18:35:18.247Z,78.35
2023-02-16T18:37:47.308Z,78.46
2023-02-16T18:40:19.613Z,78.85
2023-02-16T18:42:47.645Z,78.28
2023-02-16T18:45:15.712Z,78.36
2023-02-16T18:47:45.140Z,78.33
2023-02-16T18:50:13.434Z,78.78
2023-02-16T18:52:42.423Z,78.41
2023-02-16T18:55:11.422Z,78.28
2023-02-16T18:57:40.586Z,78.30
2023-02-16T19:00:12.144Z,78.75
2023-02-16T19:02:41.063Z,78.69
2023-02-16T19:05:09.334Z,78.68
2023-02-16T19:07:37.564Z,78.10
2023-02-16T19:10:07.242Z,78.70
2023-02-16T19:12:35.003Z,78.73
2023-02-16T19:15:04.444Z,78.21
2023-02-16T19:17:32.176Z,78.27
2023-02-16T19:19:59.952Z,78.85
2023-02-16T19:22:27.886Z,78.56
2023-02-16T19:24:55.655Z,78.40
2023-02-16T19:27:23.516Z,78.64
2023-02-16T19:29:51.366Z,78.74
2023-02-16T19:32:20.506Z,78.42
2023-02-16T19:34:48.266Z,78.38
2023-02-16T19:37:16.230Z,78.37
2023-02-16T19:39:44.045Z,78.17
2023-02-16T19:42:11.886Z,78.67
2023-02-16T19:44:39.997Z,78.53
2023-02-16T19:47:08.243Z,78.41
2023-02-16T19:49:37.426Z,78.68
2023-02-16T19:52:05.517Z,78.32
2023-02-16T19:54:35.929Z,78.42
2023-02-16T19:57:03.982Z,78.74
2023-02-16T19:59:32.114Z,78.59
2023-02-16T20:02:00.017Z,78.69
2023-02-16T20:04:28.080Z,78.41
2023-02-16T20:06:57.194Z,78.51
2023-02-16T20:09:25.815Z,78.52
2023-02-16T20:11:53.558Z,78.46
2023-02-16T20:14:21.374Z,78.39
2023-02-16T20:16:51.870Z,78.33
2023-02-16T20:19:19.635Z,78.47
2023-02-16T20:21:47.392Z,78.59
2023-02-16T20:24:16.576Z,78.47
2023-02-16T20:26:46.470Z,78.47
2023-02-16T20:29:16.228Z,78.46
2023-02-16T20:31:48.347Z,78.46
2023-02-16T20:34:16.353Z,78.41
2023-02-16T20:36:44.346Z,78.32
2023-02-16T20:39:12.407Z,78.57
2023-02-16T20:41:41.980Z,78.41
2023-02-16T20:44:09.994Z,78.34
2023-02-16T20:46:38.784Z,78.45
2023-02-16T20:49:07.756Z,78.42
2023-02-16T20:51:36.370Z,78.51
2023-02-16T20:54:05.635Z,78.56
2023-02-16T20:56:33.424Z,78.40
2023-02-16T20:59:02.567Z,78.64
2023-02-16T21:01:32.561Z,78.43
2023-02-16T21:04:01.779Z,78.50
2023-02-16T21:06:30.174Z,78.59
2023-02-16T21:08:58.069Z,78.40
2023-02-16T21:11:26.657Z,78.45
2023-02-16T21:13:54.891Z,78.58
2023-02-16T21:16:24.306Z,78.48
2023-02-16T21:18:52.928Z,78.63
2023-02-16T21:21:21.361Z,78.50
2023-02-16T21:23:51.661Z,78.69
2023-02-16T21:26:21.745Z,78.38
2023-02-16T21:28:50.059Z,78.63
2023-02-16T21:31:20.734Z,78.56
2023-02-16T21:33:50.425Z,78.53
2023-02-16T21:36:20.368Z,78.69
2023-02-16T21:38:49.130Z,78.82
2023-02-16T21:41:24.845Z,78.49
2023-02-16T21:44:00.643Z,78.66
2023-02-16T21:46:30.761Z,78.51
2023-02-16T21:48:59.319Z,78.61
2023-02-16T21:51:29.609Z,78.53
2023-02-16T21:53:57.992Z,78.67
2023-02-16T21:56:33.053Z,78.58
2023-02-16T21:59:00.893Z,78.49
2023-02-16T22:01:31.219Z,78.78
2023-02-16T22:04:02.172Z,78.95
2023-02-16T22:06:33.188Z,78.65
2023-02-16T22:09:01.911Z,78.56
2023-02-16T22:11:29.805Z,78.75
2023-02-16T22:13:59.421Z,78.84
2023-02-16T22:16:29.603Z,79.00
2023-02-16T22:18:58.545Z,79.02
2023-02-16T22:21:28.312Z,79.28
2023-02-16T22:23:56.766Z,78.76
2023-02-16T22:26:26.676Z,79.22
2023-02-16T22:28:55.047Z,78.86
2023-02-16T22:31:25.112Z,79.17
2023-02-16T22:33:56.630Z,79.32
2023-02-16T22:36:24.518Z,79.27
2023-02-16T22:38:54.841Z,79.34
2023-02-16T22:41:23.538Z,78.98
2023-02-16T22:43:53.468Z,79.43
2023-02-16T22:46:22.411Z,78.89
2023-02-16T22:48:50.180Z,79.05
2023-02-16T22:51:19.480Z,79.02
2023-02-16T22:53:47.280Z,79.23
2023-02-16T22:56:18.431Z,79.36
2023-02-16T22:58:47.023Z,78.97
2023-02-16T23:01:16.745Z,78.85
2023-02-16T23:03:47.018Z,79.06
2023-02-16T23:06:16.502Z,79.56
2023-02-16T23:08:45.404Z,79.42
2023-02-16T23:11:16.098Z,79.15
2023-02-16T23:13:44.058Z,78.90
2023-02-16T23:16:14.045Z,79.26
2023-02-16T23:18:42.579Z,79.16
2023-02-16T23:21:15.110Z,79.32
2023-02-16T23:23:43.317Z,79.16
2023-02-16T23:26:11.220Z,79.23
2023-02-16T23:28:42.229Z,79.28
2023-02-16T23:31:10.405Z,79.69
2023-02-16T23:33:38.492Z,79.51
2023-02-16T23:36:07.156Z,79.36
2023-02-16T23:38:35.142Z,79.61
2023-02-16T23:41:05.718Z,79.88
2023-02-16T23:43:34.439Z,79.52
2023-02-16T23:46:04.160Z,79.44
2023-02-16T23:48:32.254Z,79.35
2023-02-16T23:51:00.400Z,79.36
2023-02-16T23:53:29.081Z,79.28
2023-02-16T23:56:00.598Z,79.39
2023-02-16T23:58:29.460Z,79.35
